createdAt,value
2019-05-23T00:00:54.160Z,102071.28
2019-05-23T00:03:25.469Z,102068.69
2019-05-23T00:06:00.030Z,102070.48
2019-05-23T00:08:32.195Z,102073.97
2019-05-23T00:11:04.411Z,102073.14
2019-05-23T00:13:44.045Z,102072.72
2019-05-23T00:16:15.858Z,102068.41
2019-05-23T00:18:47.016Z,102064.56
2019-05-23T00:21:17.860Z,102062.84
2019-05-23T00:23:47.437Z,102060.69
2019-05-23T00:26:17.019Z,102054.17
2019-05-23T00:28:48.161Z,102058.98
2019-05-23T00:31:25.991Z,102061.19
2019-05-23T00:33:56.643Z,102063.37
2019-05-23T00:36:26.449Z,102061.61
2019-05-23T00:38:56.732Z,102055.07
2019-05-23T00:41:26.146Z,102053.77
2019-05-23T00:43:56.226Z,102060.28
2019-05-23T00:46:26.303Z,102053.31
2019-05-23T00:48:56.936Z,102058.95
2019-05-23T00:51:27.038Z,102051.14
2019-05-23T00:53:56.930Z,102054.63
2019-05-23T00:56:26.706Z,102058.48
2019-05-23T00:58:56.219Z,102058.91
2019-05-23T01:01:28.105Z,102061.95
2019-05-23T01:03:59.462Z,102058.48
2019-05-23T01:06:29.778Z,102061.55
2019-05-23T01:08:59.806Z,102051.60
2019-05-23T01:11:29.232Z,102050.33
2019-05-23T01:13:59.450Z,102052.11
2019-05-23T01:16:30.680Z,102049.09
2019-05-23T01:19:00.399Z,102051.28
2019-05-23T01:21:48.343Z,102053.06
2019-05-23T01:24:19.621Z,102051.73
2019-05-23T01:26:49.534Z,102046.48
2019-05-23T01:29:20.969Z,102042.16
2019-05-23T01:31:52.216Z,102040.40
2019-05-23T01:34:22.265Z,102034.36
2019-05-23T01:36:51.709Z,102028.73
2019-05-23T01:39:21.528Z,102030.42
2019-05-23T01:41:51.171Z,102031.34
2019-05-23T01:44:21.539Z,102032.58
2019-05-23T01:46:51.397Z,102021.74
2019-05-23T01:49:22.261Z,102023.48
2019-05-23T01:51:51.809Z,102025.67
2019-05-23T01:54:22.197Z,102026.06
2019-05-23T01:56:52.315Z,102016.48
2019-05-23T01:59:21.828Z,102013.87
2019-05-23T02:01:51.959Z,102015.17
2019-05-23T02:04:22.481Z,102013.91
2019-05-23T02:06:52.746Z,102010.47
2019-05-23T02:09:22.198Z,102013.87
2019-05-23T02:11:52.390Z,102010.82
2019-05-23T02:14:22.078Z,102004.30
2019-05-23T02:16:53.338Z,102003.44
2019-05-23T02:19:23.495Z,102003.02
2019-05-23T02:21:55.683Z,101999.95
2019-05-23T02:24:26.073Z,101993.38
2019-05-23T02:26:55.860Z,101989.08
2019-05-23T02:29:26.063Z,101987.36
2019-05-23T02:31:55.879Z,102001.54
2019-05-23T02:34:25.656Z,101994.59
2019-05-23T02:36:57.792Z,101995.00
2019-05-23T02:39:45.520Z,101996.64
2019-05-23T02:42:28.596Z,101991.84
2019-05-23T02:44:58.191Z,101990.53
2019-05-23T02:47:39.062Z,101986.59
2019-05-23T02:50:13.345Z,101989.66
2019-05-23T02:52:51.944Z,101983.11
2019-05-23T02:55:30.632Z,101982.63
2019-05-23T02:58:03.368Z,101982.16
2019-05-23T03:00:53.239Z,101990.44
2019-05-23T03:03:10.142Z,101981.30
2019-05-23T03:05:40.184Z,101980.59
2019-05-23T03:08:10.296Z,101974.08
2019-05-23T03:11:01.977Z,101972.84
2019-05-23T03:13:33.669Z,101974.16
2019-05-23T03:16:04.190Z,101966.38
2019-05-23T03:18:37.964Z,101966.81
2019-05-23T03:21:09.075Z,101967.66
2019-05-23T03:23:38.629Z,101966.78
2019-05-23T03:26:34.813Z,101963.75
2019-05-23T03:29:04.932Z,101959.00
2019-05-23T03:31:37.598Z,101955.13
2019-05-23T03:34:09.751Z,101965.98
2019-05-23T03:36:39.637Z,101957.73
2019-05-23T03:39:11.862Z,101960.34
2019-05-23T03:41:41.439Z,101955.49
2019-05-23T03:44:11.736Z,101955.04
2019-05-23T03:46:43.094Z,101955.82
2019-05-23T03:49:14.550Z,101955.79
2019-05-23T03:51:44.976Z,101945.81
2019-05-23T03:54:15.408Z,101950.58
2019-05-23T03:56:44.910Z,101956.67
2019-05-23T03:59:15.627Z,101950.53
2019-05-23T04:01:49.047Z,101949.56
2019-05-23T04:04:19.164Z,101948.66
2019-05-23T04:06:49.972Z,101948.58
2019-05-23T04:09:19.526Z,101935.08
2019-05-23T04:11:49.763Z,101944.97
2019-05-23T04:14:19.451Z,101942.23
2019-05-23T04:16:49.230Z,101938.22
2019-05-23T04:19:18.687Z,101940.81
2019-05-23T04:21:48.451Z,101940.24
2019-05-23T04:24:18.132Z,101937.95
2019-05-23T04:26:47.886Z,101944.04
2019-05-23T04:29:17.476Z,101938.73
2019-05-23T04:32:03.829Z,101935.64
2019-05-23T04:34:19.657Z,101942.48
2019-05-23T04:36:49.395Z,101942.34
2019-05-23T04:39:19.205Z,101941.81
2019-05-23T04:41:48.739Z,101945.19
2019-05-23T04:44:18.496Z,101941.63
2019-05-23T04:46:47.981Z,101946.30
2019-05-23T04:49:17.526Z,101942.71
2019-05-23T04:51:47.298Z,101944.70
2019-05-23T04:54:16.748Z,101942.44
2019-05-23T04:56:46.444Z,101940.92
2019-05-23T04:59:16.043Z,101943.77
2019-05-23T05:01:45.851Z,101942.73
2019-05-23T05:04:15.663Z,101939.96
2019-05-23T05:06:45.500Z,101941.03
2019-05-23T05:09:16.586Z,101941.65
2019-05-23T05:11:46.386Z,101945.33
2019-05-23T05:14:15.982Z,101940.36
2019-05-23T05:16:45.527Z,101938.34
2019-05-23T05:19:15.299Z,101935.95
2019-05-23T05:21:44.773Z,101937.48
2019-05-23T05:24:15.707Z,101932.52
2019-05-23T05:26:45.236Z,101933.48
2019-05-23T05:29:14.827Z,101933.73
2019-05-23T05:31:44.662Z,101929.17
2019-05-23T05:34:14.492Z,101925.88
2019-05-23T05:36:44.009Z,101936.11
2019-05-23T05:39:13.880Z,101937.56
2019-05-23T05:41:43.677Z,101939.38
2019-05-23T05:44:14.175Z,101945.98
2019-05-23T05:46:44.059Z,101945.61
2019-05-23T05:49:14.191Z,101951.80
2019-05-23T05:51:43.810Z,101944.48
2019-05-23T05:54:13.511Z,101947.31
2019-05-23T05:56:43.499Z,101949.64
2019-05-23T05:59:13.898Z,101954.80
2019-05-23T06:01:43.765Z,101952.41
2019-05-23T06:04:14.304Z,101955.20
2019-05-23T06:06:45.526Z,101956.91
2019-05-23T06:09:26.027Z,101961.20
2019-05-23T06:11:55.830Z,101966.61
2019-05-23T06:14:25.608Z,101956.57
2019-05-23T06:16:56.473Z,101960.73
2019-05-23T06:19:26.259Z,101953.66
2019-05-23T06:21:55.792Z,101949.31
2019-05-23T06:24:41.715Z,101955.14
2019-05-23T06:26:56.940Z,101957.92
2019-05-23T06:29:28.010Z,101958.82
2019-05-23T06:31:57.540Z,101955.39
2019-05-23T06:34:27.124Z,101960.74
2019-05-23T06:36:56.740Z,101964.43
2019-05-23T06:39:26.169Z,101957.88
2019-05-23T06:41:56.027Z,101957.34
2019-05-23T06:44:26.186Z,101953.27
2019-05-23T06:46:57.170Z,101946.41
2019-05-23T06:49:27.524Z,101946.16
2019-05-23T06:51:57.629Z,101947.72
2019-05-23T06:54:27.317Z,101945.20
2019-05-23T06:56:58.382Z,101944.05
2019-05-23T06:59:28.367Z,101950.81
2019-05-23T07:01:58.263Z,101954.00
2019-05-23T07:04:28.235Z,101949.65
2019-05-23T07:06:57.810Z,101951.26
2019-05-23T07:09:27.388Z,101945.04
2019-05-23T07:11:59.250Z,101948.27
2019-05-23T07:14:30.719Z,101954.09
2019-05-23T07:17:00.517Z,101946.54
2019-05-23T07:19:30.735Z,101955.78
2019-05-23T07:22:00.247Z,101954.38
2019-05-23T07:24:30.044Z,101950.08
2019-05-23T07:27:01.389Z,101946.44
2019-05-23T07:29:30.922Z,101949.45
2019-05-23T07:32:01.563Z,101946.64
2019-05-23T07:34:33.191Z,101946.48
2019-05-23T07:37:03.065Z,101950.22
2019-05-23T07:39:32.498Z,101951.78
2019-05-23T07:42:02.070Z,101956.84
2019-05-23T07:44:45.934Z,101944.42
2019-05-23T07:47:04.340Z,101942.81
2019-05-23T07:49:33.890Z,101946.39
2019-05-23T07:52:03.662Z,101945.10
2019-05-23T07:54:35.487Z,101949.59
2019-05-23T07:57:08.174Z,101944.21
2019-05-23T07:59:37.625Z,101942.61
2019-05-23T08:02:15.120Z,101938.86
2019-05-23T08:04:46.033Z,101942.14
2019-05-23T08:07:16.571Z,101939.27
2019-05-23T08:09:45.448Z,101939.59
2019-05-23T08:12:15.676Z,101933.27
2019-05-23T08:14:45.185Z,101939.55
2019-05-23T08:17:16.998Z,101933.27
2019-05-23T08:19:50.187Z,101938.95
2019-05-23T08:22:18.327Z,101939.50
2019-05-23T08:24:51.336Z,101936.82
2019-05-23T08:27:22.664Z,101943.84
2019-05-23T08:29:55.706Z,101932.98
2019-05-23T08:32:25.269Z,101931.55
2019-05-23T08:34:55.374Z,101932.78
2019-05-23T08:37:25.282Z,101929.66
2019-05-23T08:39:54.766Z,101934.91
2019-05-23T08:42:25.623Z,101934.21
2019-05-23T08:44:55.615Z,101936.72
2019-05-23T08:47:27.892Z,101927.38
2019-05-23T08:49:59.728Z,101925.77
2019-05-23T08:52:29.622Z,101927.77
2019-05-23T08:55:02.189Z,101932.28
2019-05-23T08:57:32.295Z,101925.73
2019-05-23T09:00:02.061Z,101923.98
2019-05-23T09:02:34.141Z,101929.52
2019-05-23T09:05:08.322Z,101922.48
2019-05-23T09:07:37.747Z,101924.75
2019-05-23T09:10:08.251Z,101920.42
2019-05-23T09:12:37.842Z,101922.02
2019-05-23T09:15:09.928Z,101923.75
2019-05-23T09:17:52.272Z,101920.86
2019-05-23T09:20:12.998Z,101923.58
2019-05-23T09:22:43.063Z,101923.58
2019-05-23T09:25:13.707Z,101919.26
2019-05-23T09:27:43.302Z,101928.16
2019-05-23T09:30:17.164Z,101922.95
2019-05-23T09:32:46.788Z,101919.95
2019-05-23T09:35:21.932Z,101917.67
2019-05-23T09:37:48.511Z,101914.74
2019-05-23T09:40:18.564Z,101921.93
2019-05-23T09:42:48.167Z,101914.23
2019-05-23T09:45:18.804Z,101916.95
2019-05-23T09:47:51.279Z,101918.48
2019-05-23T09:50:21.961Z,101918.48
2019-05-23T09:52:51.479Z,101920.50
2019-05-23T09:55:21.639Z,101920.50
2019-05-23T09:57:51.236Z,101908.39
2019-05-23T10:00:22.596Z,101915.88
2019-05-23T10:02:52.280Z,101908.30
2019-05-23T10:05:40.917Z,101919.04
2019-05-23T10:07:53.272Z,101916.98
2019-05-23T10:10:23.160Z,101918.54
2019-05-23T10:12:52.611Z,101912.68
2019-05-23T10:15:39.675Z,101897.88
2019-05-23T10:18:10.786Z,101900.17
2019-05-23T10:20:40.657Z,101890.95
2019-05-23T10:23:10.171Z,101898.93
2019-05-23T10:25:39.686Z,101885.94
2019-05-23T10:28:09.475Z,101896.34
2019-05-23T10:30:39.465Z,101895.14
2019-05-23T10:33:12.039Z,101887.00
2019-05-23T10:35:59.146Z,101887.20
2019-05-23T10:38:13.793Z,101892.43
2019-05-23T10:40:43.690Z,101888.69
2019-05-23T10:43:13.257Z,101878.16
2019-05-23T10:45:42.854Z,101881.63
2019-05-23T10:48:13.977Z,101894.95
2019-05-23T10:50:45.103Z,101887.32
2019-05-23T10:53:16.062Z,101887.63
2019-05-23T10:55:45.674Z,101882.36
2019-05-23T10:58:16.271Z,101888.23
2019-05-23T11:00:45.979Z,101872.71
2019-05-23T11:03:16.047Z,101863.73
2019-05-23T11:05:45.811Z,101862.58
2019-05-23T11:08:15.708Z,101874.33
2019-05-23T11:10:45.657Z,101859.59
2019-05-23T11:13:15.121Z,101861.24
2019-05-23T11:15:44.602Z,101859.39
2019-05-23T11:18:14.521Z,101857.83
2019-05-23T11:20:44.247Z,101862.20
2019-05-23T11:23:15.522Z,101854.08
2019-05-23T11:25:45.205Z,101859.20
2019-05-23T11:28:14.941Z,101853.11
2019-05-23T11:30:57.942Z,101839.09
2019-05-23T11:33:27.675Z,101839.70
2019-05-23T11:35:58.259Z,101849.96
2019-05-23T11:38:28.578Z,101841.92
2019-05-23T11:40:58.102Z,101825.20
2019-05-23T11:43:28.339Z,101842.70
2019-05-23T11:45:59.591Z,101852.77
2019-05-23T11:48:29.600Z,101839.02
2019-05-23T11:50:59.184Z,101837.29
2019-05-23T11:53:29.533Z,101826.19
2019-05-23T11:55:59.087Z,101829.86
2019-05-23T11:58:32.354Z,101826.33
2019-05-23T12:01:10.150Z,101829.55
2019-05-23T12:03:40.110Z,101824.46
2019-05-23T12:06:09.609Z,101828.48
2019-05-23T12:08:39.619Z,101823.85
2019-05-23T12:11:09.113Z,101815.84
2019-05-23T12:13:38.619Z,101821.56
2019-05-23T12:16:08.305Z,101826.16
2019-05-23T12:18:37.855Z,101831.82
2019-05-23T12:21:07.512Z,101826.95
2019-05-23T12:23:38.714Z,101821.88
2019-05-23T12:26:08.233Z,101824.73
2019-05-23T12:28:37.743Z,101822.34
2019-05-23T12:31:07.906Z,101821.44
2019-05-23T12:33:37.752Z,101823.98
2019-05-23T12:36:07.195Z,101811.73
2019-05-23T12:38:36.641Z,101817.25
2019-05-23T12:41:07.931Z,101813.36
2019-05-23T12:46:06.004Z,101815.00
2019-05-23T12:48:43.177Z,101805.97
2019-05-23T12:51:14.514Z,101810.93
2019-05-23T12:53:44.013Z,101802.72
2019-05-23T12:56:13.741Z,101798.30
2019-05-23T12:58:43.686Z,101817.03
2019-05-23T13:01:15.337Z,101793.23
2019-05-23T13:03:45.195Z,101807.92
2019-05-23T13:06:15.076Z,101795.30
2019-05-23T13:08:44.490Z,101796.03
2019-05-23T13:11:14.648Z,101798.52
2019-05-23T13:13:44.154Z,101797.42
2019-05-23T13:16:13.809Z,101794.91
2019-05-23T13:18:43.351Z,101787.37
2019-05-23T13:21:13.409Z,101787.74
2019-05-23T13:23:43.083Z,101789.52
2019-05-23T13:26:12.738Z,101789.45
2019-05-23T13:28:42.226Z,101782.47
2019-05-23T13:31:11.678Z,101778.50
2019-05-23T13:33:43.507Z,101777.53
2019-05-23T13:36:12.944Z,101777.27
2019-05-23T13:38:42.464Z,101773.51
2019-05-23T13:41:11.923Z,101762.83
2019-05-23T13:43:41.348Z,101764.98
2019-05-23T13:46:11.225Z,101762.75
2019-05-23T13:48:40.831Z,101770.09
2019-05-23T13:51:10.439Z,101766.90
2019-05-23T13:53:40.129Z,101769.47
2019-05-23T13:56:09.760Z,101763.83
2019-05-23T13:58:39.585Z,101760.78
2019-05-23T14:01:10.197Z,101767.38
2019-05-23T14:03:40.058Z,101759.95
2019-05-23T14:06:09.921Z,101764.23
2019-05-23T14:08:39.438Z,101751.44
2019-05-23T14:11:09.046Z,101752.52
2019-05-23T14:13:38.815Z,101752.84
2019-05-23T14:16:09.143Z,101760.55
2019-05-23T14:18:38.764Z,101749.00
2019-05-23T14:21:08.367Z,101751.64
2019-05-23T14:23:37.842Z,101749.84
2019-05-23T14:26:08.290Z,101747.94
2019-05-23T14:28:37.727Z,101745.52
2019-05-23T14:31:14.965Z,101758.27
2019-05-23T14:33:46.106Z,101763.48
2019-05-23T14:36:23.628Z,101764.66
2019-05-23T14:38:54.683Z,101756.53
2019-05-23T14:41:24.474Z,101758.35
2019-05-23T14:43:54.310Z,101758.63
2019-05-23T14:46:25.661Z,101764.67
2019-05-23T14:49:02.636Z,101755.06
2019-05-23T14:51:39.896Z,101748.64
2019-05-23T14:54:23.497Z,101756.03
2019-05-23T14:56:53.331Z,101753.52
2019-05-23T14:59:23.440Z,101753.00
2019-05-23T15:01:53.423Z,101747.70
2019-05-23T15:04:23.390Z,101747.92
2019-05-23T15:06:54.444Z,101749.36
2019-05-23T15:09:24.535Z,101745.26
2019-05-23T15:11:56.251Z,101750.56
2019-05-23T15:14:25.785Z,101743.05
2019-05-23T15:16:55.302Z,101743.56
2019-05-23T15:19:39.118Z,101745.59
2019-05-23T15:21:57.373Z,101745.59
2019-05-23T15:24:27.254Z,101748.14
2019-05-23T15:26:56.734Z,101740.75
2019-05-23T15:29:29.288Z,101748.52
2019-05-23T15:32:02.367Z,101738.63
2019-05-23T15:34:29.117Z,101737.21
2019-05-23T15:37:00.313Z,101754.44
2019-05-23T15:39:30.107Z,101739.17
2019-05-23T15:41:59.801Z,101742.36
2019-05-23T15:44:30.427Z,101746.33
2019-05-23T15:47:01.131Z,101739.30
2019-05-23T15:49:31.537Z,101738.80
2019-05-23T15:52:18.875Z,101747.94
2019-05-23T15:54:55.696Z,101738.55
2019-05-23T15:57:26.789Z,101729.56
2019-05-23T15:59:59.452Z,101734.72
2019-05-23T16:02:30.742Z,101728.05
2019-05-23T16:05:00.589Z,101728.59
2019-05-23T16:07:32.454Z,101725.22
2019-05-23T16:10:02.167Z,101726.45
2019-05-23T16:12:32.067Z,101720.39
2019-05-23T16:15:01.964Z,101729.46
2019-05-23T16:17:31.999Z,101722.92
2019-05-23T16:20:01.589Z,101718.06
2019-05-23T16:22:31.266Z,101720.52
2019-05-23T16:25:00.828Z,101718.23
2019-05-23T16:27:30.580Z,101729.02
2019-05-23T16:30:00.075Z,101720.00
2019-05-23T16:32:29.517Z,101720.00
2019-05-23T16:34:59.121Z,101725.03
2019-05-23T16:37:28.728Z,101725.36
2019-05-23T16:39:58.175Z,101719.08
2019-05-23T16:42:27.821Z,101722.65
2019-05-23T16:44:57.337Z,101717.38
2019-05-23T16:47:27.144Z,101722.59
2019-05-23T16:49:56.565Z,101731.13
2019-05-23T16:52:26.077Z,101722.20
2019-05-23T16:54:57.142Z,101728.17
2019-05-23T16:57:31.678Z,101729.69
2019-05-23T17:00:15.093Z,101729.69
2019-05-23T17:03:02.497Z,101729.11
2019-05-23T17:05:38.040Z,101721.58
2019-05-23T17:08:09.202Z,101717.41
2019-05-23T17:10:46.272Z,101713.97
2019-05-23T17:13:17.427Z,101713.97
2019-05-23T17:15:51.339Z,101720.08
2019-05-23T17:18:35.370Z,101719.97
2019-05-23T17:21:09.551Z,101719.97
2019-05-23T17:23:43.714Z,101707.69
2019-05-23T17:26:21.120Z,101706.46
2019-05-23T17:28:55.477Z,101704.31
2019-05-23T17:31:36.261Z,101707.06
2019-05-23T17:34:05.951Z,101702.83
2019-05-23T17:36:35.501Z,101706.38
2019-05-23T17:39:09.410Z,101702.31
2019-05-23T17:41:38.929Z,101706.02
2019-05-23T17:44:08.516Z,101705.09
2019-05-23T17:46:38.404Z,101696.91
2019-05-23T17:49:07.912Z,101701.69
2019-05-23T17:51:37.342Z,101698.73
2019-05-23T17:54:06.933Z,101700.26
2019-05-23T17:56:36.447Z,101701.05
2019-05-23T17:59:06.072Z,101701.05
2019-05-23T18:01:35.686Z,101704.22
2019-05-23T18:04:06.665Z,101705.92
2019-05-23T18:06:37.030Z,101706.95
2019-05-23T18:09:08.464Z,101710.38
2019-05-23T18:11:38.026Z,101710.38
2019-05-23T18:14:07.793Z,101707.20
2019-05-23T18:16:37.384Z,101694.20
2019-05-23T18:19:07.744Z,101707.27
2019-05-23T18:21:37.648Z,101707.27
2019-05-23T18:24:09.095Z,101702.55
2019-05-23T18:26:38.829Z,101707.52
2019-05-23T18:29:08.545Z,101707.52
2019-05-23T18:31:39.690Z,101706.47
2019-05-23T18:34:09.522Z,101704.98
2019-05-23T18:36:39.614Z,101709.14
2019-05-23T18:39:11.433Z,101703.69
2019-05-23T18:41:40.980Z,101719.94
2019-05-23T18:44:11.268Z,101716.16
2019-05-23T18:46:45.092Z,101718.85
2019-05-23T18:49:15.165Z,101718.81
2019-05-23T18:51:44.775Z,101720.05
2019-05-23T18:54:14.684Z,101725.00
2019-05-23T18:56:44.276Z,101727.56
2019-05-23T18:59:14.097Z,101724.72
2019-05-23T19:01:43.597Z,101730.25
2019-05-23T19:04:13.387Z,101731.34
2019-05-23T19:06:43.579Z,101731.48
2019-05-23T19:09:14.303Z,101728.22
2019-05-23T19:11:43.893Z,101732.70
2019-05-23T19:14:13.445Z,101728.59
2019-05-23T19:16:43.351Z,101730.56
2019-05-23T19:19:12.968Z,101737.16
2019-05-23T19:21:42.843Z,101732.53
2019-05-23T19:24:12.362Z,101736.80
2019-05-23T19:26:42.125Z,101739.38
2019-05-23T19:29:12.908Z,101737.22
2019-05-23T19:31:42.638Z,101739.90
2019-05-23T19:34:12.403Z,101734.14
2019-05-23T19:36:42.131Z,101740.20
2019-05-23T19:39:13.193Z,101735.34
2019-05-23T19:41:42.749Z,101732.03
2019-05-23T19:44:12.458Z,101737.71
2019-05-23T19:46:42.008Z,101731.50
2019-05-23T19:49:12.982Z,101737.61
2019-05-23T19:51:42.476Z,101736.59
2019-05-23T19:54:12.212Z,101734.55
2019-05-23T19:56:41.778Z,101734.92
2019-05-23T19:59:11.288Z,101738.94
2019-05-23T20:01:58.959Z,101734.63
2019-05-23T20:04:31.451Z,101735.84
2019-05-23T20:07:01.314Z,101734.08
2019-05-23T20:09:30.878Z,101738.05
2019-05-23T20:12:00.360Z,101729.88
2019-05-23T20:14:30.161Z,101736.86
2019-05-23T20:16:59.569Z,101733.25
2019-05-23T20:19:30.022Z,101735.42
2019-05-23T20:21:59.502Z,101731.02
2019-05-23T20:24:29.080Z,101738.43
2019-05-23T20:26:58.793Z,101733.80
2019-05-23T20:29:29.930Z,101736.08
2019-05-23T20:31:59.535Z,101743.47
2019-05-23T20:34:29.616Z,101741.77
2019-05-23T20:36:59.134Z,101737.33
2019-05-23T20:39:29.029Z,101740.41
2019-05-23T20:42:10.768Z,101737.12
2019-05-23T20:44:29.682Z,101738.05
2019-05-23T20:46:59.313Z,101731.31
2019-05-23T20:49:28.731Z,101733.08
2019-05-23T20:51:58.453Z,101737.61
2019-05-23T20:54:28.537Z,101739.55
2019-05-23T20:56:58.066Z,101736.01
2019-05-23T20:59:27.480Z,101738.34
2019-05-23T21:01:57.107Z,101735.34
2019-05-23T21:04:26.520Z,101729.90
2019-05-23T21:06:55.960Z,101735.61
2019-05-23T21:09:26.925Z,101728.77
2019-05-23T21:11:56.384Z,101726.31
2019-05-23T21:14:26.038Z,101720.84
2019-05-23T21:16:55.571Z,101717.41
2019-05-23T21:19:25.012Z,101715.29
2019-05-23T21:21:54.530Z,101720.59
2019-05-23T21:24:23.944Z,101719.84
2019-05-23T21:26:53.403Z,101715.98
2019-05-23T21:29:22.868Z,101718.76
2019-05-23T21:31:52.325Z,101718.06
2019-05-23T21:34:22.450Z,101720.28
2019-05-23T21:36:52.050Z,101714.25
2019-05-23T21:39:21.736Z,101720.95
2019-05-23T21:41:51.326Z,101715.01
2019-05-23T21:44:20.885Z,101713.26
2019-05-23T21:46:50.740Z,101711.59
2019-05-23T21:49:20.166Z,101709.98
2019-05-23T21:51:51.708Z,101712.76
2019-05-23T21:54:20.797Z,101712.52
2019-05-23T21:56:50.328Z,101711.43
2019-05-23T21:59:19.750Z,101716.37
2019-05-23T22:02:05.997Z,101717.83
2019-05-23T22:04:37.175Z,101718.08
2019-05-23T22:07:07.030Z,101721.66
2019-05-23T22:09:36.695Z,101721.96
2019-05-23T22:12:06.694Z,101720.34
2019-05-23T22:14:36.616Z,101718.19
2019-05-23T22:17:06.073Z,101717.33
2019-05-23T22:19:36.170Z,101715.20
2019-05-23T22:22:07.296Z,101720.45
2019-05-23T22:24:39.564Z,101707.94
2019-05-23T22:27:09.966Z,101707.09
2019-05-23T22:29:41.056Z,101705.78
2019-05-23T22:32:12.164Z,101710.21
2019-05-23T22:34:46.322Z,101704.63
2019-05-23T22:37:17.424Z,101705.32
2019-05-23T22:39:46.973Z,101707.76
2019-05-23T22:42:16.866Z,101703.62
2019-05-23T22:44:46.320Z,101703.75
2019-05-23T22:47:16.272Z,101702.95
2019-05-23T22:49:47.290Z,101697.84
2019-05-23T22:52:16.932Z,101699.20
2019-05-23T22:54:46.391Z,101701.45
2019-05-23T22:57:15.923Z,101692.73
2019-05-23T22:59:45.542Z,101693.64
2019-05-23T23:02:16.812Z,101691.92
2019-05-23T23:04:46.323Z,101678.44
2019-05-23T23:07:15.929Z,101678.52
2019-05-23T23:09:45.821Z,101681.95
2019-05-23T23:12:15.386Z,101682.53
2019-05-23T23:14:44.893Z,101681.36
2019-05-23T23:17:14.607Z,101672.30
2019-05-23T23:19:44.042Z,101673.19
2019-05-23T23:22:13.946Z,101672.91
2019-05-23T23:24:43.476Z,101672.91
2019-05-23T23:27:13.057Z,101675.16
2019-05-23T23:29:44.005Z,101670.02
2019-05-23T23:32:15.384Z,101668.50
2019-05-23T23:34:44.887Z,101675.41
2019-05-23T23:37:14.445Z,101670.75
2019-05-23T23:39:43.926Z,101669.44
2019-05-23T23:42:13.485Z,101667.27
2019-05-23T23:44:42.219Z,101665.52
2019-05-23T23:47:29.341Z,101666.38
2019-05-23T23:50:17.457Z,101656.81
2019-05-23T23:53:04.572Z,101656.94
2019-05-23T23:55:51.923Z,101650.87
2019-05-23T23:58:20.626Z,101647.73
